sensor_id;sensor_type;location;lat;lon;timestamp;pressure;altitude;pressure_sealevel;temperature;humidity
48200;BME280;33990;44.602;10.976;2023-04-10T00:00:06;101779.06;;;18.74;49.45
48200;BME280;33990;44.602;10.976;2023-04-10T00:02:34;101769.19;;;18.75;49.23
48200;BME280;33990;44.602;10.976;2023-04-10T00:05:06;101770.16;;;18.74;49.26
48200;BME280;33990;44.602;10.976;2023-04-10T00:07:34;101771.97;;;18.73;49.23
48200;BME280;33990;44.602;10.976;2023-04-10T00:10:01;101762.09;;;18.74;49.02
48200;BME280;33990;44.602;10.976;2023-04-10T00:12:29;101766.63;;;18.73;49.03
48200;BME280;33990;44.602;10.976;2023-04-10T00:14:56;101767.47;;;18.74;48.80
48200;BME280;33990;44.602;10.976;2023-04-10T00:17:24;101771.00;;;18.74;49.00
48200;BME280;33990;44.602;10.976;2023-04-10T00:19:52;101762.09;;;18.74;49.00
48200;BME280;33990;44.602;10.976;2023-04-10T00:22:19;101759.44;;;18.74;49.02
48200;BME280;33990;44.602;10.976;2023-04-10T00:24:46;101759.44;;;18.74;48.85
48200;BME280;33990;44.602;10.976;2023-04-10T00:27:14;101762.09;;;18.74;48.83
48200;BME280;33990;44.602;10.976;2023-04-10T00:29:41;101756.75;;;18.74;48.63
48200;BME280;33990;44.602;10.976;2023-04-10T00:32:08;101762.09;;;18.74;48.71
48200;BME280;33990;44.602;10.976;2023-04-10T00:34:36;101756.75;;;18.74;48.70
48200;BME280;33990;44.602;10.976;2023-04-10T00:37:03;101760.28;;;18.74;48.43
48200;BME280;33990;44.602;10.976;2023-04-10T00:39:32;101750.53;;;18.73;48.05
48200;BME280;33990;44.602;10.976;2023-04-10T00:41:59;101751.38;;;18.74;48.03
48200;BME280;33990;44.602;10.976;2023-04-10T00:44:28;101748.69;;;18.74;48.23
48200;BME280;33990;44.602;10.976;2023-04-10T00:47:04;101751.38;;;18.74;48.15
48200;BME280;33990;44.602;10.976;2023-04-10T00:49:32;101746.88;;;18.74;48.23
48200;BME280;33990;44.602;10.976;2023-04-10T00:52:00;101740.66;;;18.74;48.06
48200;BME280;33990;44.602;10.976;2023-04-10T00:54:27;101738.81;;;18.74;47.93
48200;BME280;33990;44.602;10.976;2023-04-10T00:56:55;101746.00;;;18.74;47.94
48200;BME280;33990;44.602;10.976;2023-04-10T00:59:24;101744.19;;;18.74;48.13
48200;BME280;33990;44.602;10.976;2023-04-10T01:01:52;101745.03;;;18.75;48.33
48200;BME280;33990;44.602;10.976;2023-04-10T01:04:20;101746.88;;;18.74;48.29
48200;BME280;33990;44.602;10.976;2023-04-10T01:15:15;101745.91;;;18.75;48.01
48200;BME280;33990;44.602;10.976;2023-04-10T01:20:25;101744.19;;;18.74;47.92
48200;BME280;33990;44.602;10.976;2023-04-10T01:25:42;101751.25;;;18.75;47.81
48200;BME280;33990;44.602;10.976;2023-04-10T01:30:56;101737.00;;;18.75;47.79
48200;BME280;33990;44.602;10.976;2023-04-10T01:33:30;101738.81;;;18.74;47.62
48200;BME280;33990;44.602;10.976;2023-04-10T01:36:02;101739.69;;;18.75;47.51
48200;BME280;33990;44.602;10.976;2023-04-10T01:38:31;101743.22;;;18.75;47.54
48200;BME280;33990;44.602;10.976;2023-04-10T01:41:00;101735.28;;;18.74;47.50
48200;BME280;33990;44.602;10.976;2023-04-10T01:43:30;101742.34;;;18.75;47.22
48200;BME280;33990;44.602;10.976;2023-04-10T01:46:01;101736.13;;;18.74;47.27
48200;BME280;33990;44.602;10.976;2023-04-10T01:48:30;101747.72;;;18.75;47.23
48200;BME280;33990;44.602;10.976;2023-04-10T01:50:59;101743.22;;;18.75;47.38
48200;BME280;33990;44.602;10.976;2023-04-10T01:53:29;101745.03;;;18.75;47.06
48200;BME280;33990;44.602;10.976;2023-04-10T01:55:58;101747.72;;;18.75;47.27
48200;BME280;33990;44.602;10.976;2023-04-10T01:58:26;101741.50;;;18.74;47.17
48200;BME280;33990;44.602;10.976;2023-04-10T02:00:55;101748.59;;;18.75;47.35
48200;BME280;33990;44.602;10.976;2023-04-10T02:03:23;101747.72;;;18.75;47.28
48200;BME280;33990;44.602;10.976;2023-04-10T02:08:25;101746.78;;;18.76;47.38
48200;BME280;33990;44.602;10.976;2023-04-10T02:10:58;101747.72;;;18.75;47.57
48200;BME280;33990;44.602;10.976;2023-04-10T02:13:29;101750.41;;;18.75;47.67
48200;BME280;33990;44.602;10.976;2023-04-10T02:15:58;101749.47;;;18.76;47.79
48200;BME280;33990;44.602;10.976;2023-04-10T02:18:32;101746.78;;;18.76;47.57
48200;BME280;33990;44.602;10.976;2023-04-10T02:21:01;101752.16;;;18.76;47.72
48200;BME280;33990;44.602;10.976;2023-04-10T02:23:29;101753.94;;;18.75;47.85
48200;BME280;33990;44.602;10.976;2023-04-10T02:25:57;101745.91;;;18.75;47.60
48200;BME280;33990;44.602;10.976;2023-04-10T02:28:24;101753.94;;;18.75;47.68
48200;BME280;33990;44.602;10.976;2023-04-10T02:30:52;101751.19;;;18.77;47.66
48200;BME280;33990;44.602;10.976;2023-04-10T02:33:19;101747.63;;;18.76;47.63
48200;BME280;33990;44.602;10.976;2023-04-10T02:35:46;101751.25;;;18.75;47.75
48200;BME280;33990;44.602;10.976;2023-04-10T02:38:14;101753.84;;;18.77;47.58
48200;BME280;33990;44.602;10.976;2023-04-10T02:40:43;101749.47;;;18.76;47.74
48200;BME280;33990;44.602;10.976;2023-04-10T02:43:13;101750.41;;;18.75;47.62
48200;BME280;33990;44.602;10.976;2023-04-10T02:45:41;101756.63;;;18.75;47.47
48200;BME280;33990;44.602;10.976;2023-04-10T02:48:13;101748.59;;;18.75;47.50
48200;BME280;33990;44.602;10.976;2023-04-10T02:50:41;101749.47;;;18.76;47.38
48200;BME280;33990;44.602;10.976;2023-04-10T02:53:14;101748.59;;;18.75;47.37
48200;BME280;33990;44.602;10.976;2023-04-10T02:55:42;101745.03;;;18.75;47.27
48200;BME280;33990;44.602;10.976;2023-04-10T02:58:09;101752.16;;;18.76;47.28
48200;BME280;33990;44.602;10.976;2023-04-10T03:00:47;101753.94;;;18.75;47.33
48200;BME280;33990;44.602;10.976;2023-04-10T03:03:18;101754.84;;;18.76;47.27
48200;BME280;33990;44.602;10.976;2023-04-10T03:05:52;101754.84;;;18.76;47.17
48200;BME280;33990;44.602;10.976;2023-04-10T03:08:26;101749.47;;;18.76;47.06
48200;BME280;33990;44.602;10.976;2023-04-10T03:10:53;101755.78;;;18.75;47.12
48200;BME280;33990;44.602;10.976;2023-04-10T03:13:20;101759.31;;;18.75;47.01
48200;BME280;33990;44.602;10.976;2023-04-10T03:15:49;101756.63;;;18.75;47.15
48200;BME280;33990;44.602;10.976;2023-04-10T03:18:17;101757.50;;;18.76;46.94
48200;BME280;33990;44.602;10.976;2023-04-10T03:20:47;101758.44;;;18.75;47.01
48200;BME280;33990;44.602;10.976;2023-04-10T03:23:15;101757.59;;;18.74;46.94
48200;BME280;33990;44.602;10.976;2023-04-10T03:25:42;101772.72;;;18.75;46.95
48200;BME280;33990;44.602;10.976;2023-04-10T03:28:11;101765.66;;;18.74;46.82
48200;BME280;33990;44.602;10.976;2023-04-10T03:30:38;101762.97;;;18.74;46.80
48200;BME280;33990;44.602;10.976;2023-04-10T03:33:05;101758.44;;;18.75;46.85
48200;BME280;33990;44.602;10.976;2023-04-10T03:35:33;101760.28;;;18.74;47.01
48200;BME280;33990;44.602;10.976;2023-04-10T03:38:00;101761.13;;;18.75;46.94
48200;BME280;33990;44.602;10.976;2023-04-10T03:40:27;101757.59;;;18.74;46.81
48200;BME280;33990;44.602;10.976;2023-04-10T03:42:55;101764.69;;;18.75;46.84
48200;BME280;33990;44.602;10.976;2023-04-10T03:45:23;101759.31;;;18.75;46.79
48200;BME280;33990;44.602;10.976;2023-04-10T03:47:51;101767.34;;;18.75;46.89
48200;BME280;33990;44.602;10.976;2023-04-10T03:50:20;101770.94;;;18.76;46.89
48200;BME280;33990;44.602;10.976;2023-04-10T03:52:53;101763.81;;;18.75;46.74
48200;BME280;33990;44.602;10.976;2023-04-10T03:55:23;101764.69;;;18.75;46.79
48200;BME280;33990;44.602;10.976;2023-04-10T03:57:51;101775.41;;;18.75;46.70
48200;BME280;33990;44.602;10.976;2023-04-10T04:00:23;101773.69;;;18.74;46.86
48200;BME280;33990;44.602;10.976;2023-04-10T04:03:00;101775.41;;;18.75;46.79
48200;BME280;33990;44.602;10.976;2023-04-10T04:05:51;101787.03;;;18.76;46.99
48200;BME280;33990;44.602;10.976;2023-04-10T04:08:53;101791.50;;;18.75;46.73
48200;BME280;33990;44.602;10.976;2023-04-10T04:11:44;101795.16;;;18.74;46.84
48200;BME280;33990;44.602;10.976;2023-04-10T04:14:34;101802.22;;;18.75;46.90
48200;BME280;33990;44.602;10.976;2023-04-10T04:17:20;101803.97;;;18.76;46.71
48200;BME280;33990;44.602;10.976;2023-04-10T04:20:06;101804.91;;;18.75;46.80
48200;BME280;33990;44.602;10.976;2023-04-10T04:22:46;101811.16;;;18.76;46.66
48200;BME280;33990;44.602;10.976;2023-04-10T04:25:39;101815.63;;;18.75;46.67
48200;BME280;33990;44.602;10.976;2023-04-10T04:28:30;101809.41;;;18.75;46.57
48200;BME280;33990;44.602;10.976;2023-04-10T04:31:23;101818.31;;;18.75;46.53
48200;BME280;33990;44.602;10.976;2023-04-10T04:34:11;101822.84;;;18.75;46.47
48200;BME280;33990;44.602;10.976;2023-04-10T04:36:38;101822.84;;;18.75;46.33
48200;BME280;33990;44.602;10.976;2023-04-10T04:39:33;101821.97;;;18.74;46.35
48200;BME280;33990;44.602;10.976;2023-04-10T04:42:24;101827.34;;;18.74;46.28
48200;BME280;33990;44.602;10.976;2023-04-10T04:45:10;101824.66;;;18.74;46.27
48200;BME280;33990;44.602;10.976;2023-04-10T04:48:06;101833.56;;;18.75;46.18
48200;BME280;33990;44.602;10.976;2023-04-10T04:50:52;101832.72;;;18.74;46.29
48200;BME280;33990;44.602;10.976;2023-04-10T04:53:38;101831.00;;;18.73;46.30
48200;BME280;33990;44.602;10.976;2023-04-10T04:56:26;101830.03;;;18.74;46.22
48200;BME280;33990;44.602;10.976;2023-04-10T04:59:07;101839.91;;;18.74;46.09
48200;BME280;33990;44.602;10.976;2023-04-10T05:01:54;101847.94;;;18.74;46.16
48200;BME280;33990;44.602;10.976;2023-04-10T05:04:40;101845.25;;;18.74;46.23
48200;BME280;33990;44.602;10.976;2023-04-10T05:07:24;101847.09;;;18.73;46.15
48200;BME280;33990;44.602;10.976;2023-04-10T05:10:15;101847.09;;;18.73;46.13
48200;BME280;33990;44.602;10.976;2023-04-10T05:12:45;101843.44;;;18.74;46.04
48200;BME280;33990;44.602;10.976;2023-04-10T05:15:41;101847.09;;;18.73;46.00
48200;BME280;33990;44.602;10.976;2023-04-10T05:18:33;101855.13;;;18.73;46.20
48200;BME280;33990;44.602;10.976;2023-04-10T05:21:09;101849.78;;;18.73;46.05
48200;BME280;33990;44.602;10.976;2023-04-10T05:23:44;101858.69;;;18.74;46.13
48200;BME280;33990;44.602;10.976;2023-04-10T05:26:32;101864.03;;;18.74;45.98
48200;BME280;33990;44.602;10.976;2023-04-10T05:29:25;101871.22;;;18.73;46.23
48200;BME280;33990;44.602;10.976;2023-04-10T05:32:11;101870.38;;;18.73;46.11
48200;BME280;33990;44.602;10.976;2023-04-10T05:34:52;101875.75;;;18.73;46.10
48200;BME280;33990;44.602;10.976;2023-04-10T05:37:58;101879.28;;;18.73;46.10
48200;BME280;33990;44.602;10.976;2023-04-10T05:40:49;101876.59;;;18.73;46.16
48200;BME280;33990;44.602;10.976;2023-04-10T05:43:34;101876.59;;;18.73;46.25
48200;BME280;33990;44.602;10.976;2023-04-10T05:46:22;101880.34;;;18.71;46.18
48200;BME280;33990;44.602;10.976;2023-04-10T05:49:10;101882.06;;;18.72;46.18
48200;BME280;33990;44.602;10.976;2023-04-10T05:51:57;101882.06;;;18.72;46.21
48200;BME280;33990;44.602;10.976;2023-04-10T05:54:51;101884.75;;;18.72;46.23
48200;BME280;33990;44.602;10.976;2023-04-10T05:57:47;101894.53;;;18.73;46.10
48200;BME280;33990;44.602;10.976;2023-04-10T06:00:32;101891.91;;;18.71;46.08
48200;BME280;33990;44.602;10.976;2023-04-10T06:03:29;101894.59;;;18.71;46.06
48200;BME280;33990;44.602;10.976;2023-04-10T06:06:00;101897.19;;;18.73;46.11
48200;BME280;33990;44.602;10.976;2023-04-10T06:08:30;101900.84;;;18.72;46.11
48200;BME280;33990;44.602;10.976;2023-04-10T06:10:57;101899.03;;;18.72;46.17
48200;BME280;33990;44.602;10.976;2023-04-10T06:13:24;101894.59;;;18.71;46.22
48200;BME280;33990;44.602;10.976;2023-04-10T06:15:57;101907.06;;;18.72;46.16
48200;BME280;33990;44.602;10.976;2023-04-10T06:18:25;101910.63;;;18.73;46.26
48200;BME280;33990;44.602;10.976;2023-04-10T06:20:52;101906.22;;;18.72;46.11
48200;BME280;33990;44.602;10.976;2023-04-10T06:23:20;101913.31;;;18.73;46.16
48200;BME280;33990;44.602;10.976;2023-04-10T06:25:47;101910.69;;;18.71;46.16
48200;BME280;33990;44.602;10.976;2023-04-10T06:28:14;101914.16;;;18.73;46.07
48200;BME280;33990;44.602;10.976;2023-04-10T06:30:45;101915.97;;;18.73;46.02
48200;BME280;33990;44.602;10.976;2023-04-10T06:33:12;101914.16;;;18.73;45.99
48200;BME280;33990;44.602;10.976;2023-04-10T06:35:43;101913.31;;;18.73;45.89
48200;BME280;33990;44.602;10.976;2023-04-10T06:38:10;101915.88;;;18.74;46.08
48200;BME280;33990;44.602;10.976;2023-04-10T06:40:39;101915.88;;;18.74;45.73
48200;BME280;33990;44.602;10.976;2023-04-10T06:43:07;101918.53;;;18.74;46.15
48200;BME280;33990;44.602;10.976;2023-04-10T06:45:37;101915.00;;;18.74;46.03
48200;BME280;33990;44.602;10.976;2023-04-10T06:48:05;101911.47;;;18.73;45.97
48200;BME280;33990;44.602;10.976;2023-04-10T06:50:32;101915.00;;;18.74;46.32
48200;BME280;33990;44.602;10.976;2023-04-10T06:53:00;101912.31;;;18.74;45.93
48200;BME280;33990;44.602;10.976;2023-04-10T06:55:27;101908.69;;;18.75;46.04
48200;BME280;33990;44.602;10.976;2023-04-10T06:57:55;101911.34;;;18.75;46.04
48200;BME280;33990;44.602;10.976;2023-04-10T07:00:22;101914.03;;;18.75;46.00
48200;BME280;33990;44.602;10.976;2023-04-10T07:02:50;101914.91;;;18.75;46.12
48200;BME280;33990;44.602;10.976;2023-04-10T07:05:17;101903.31;;;18.75;46.07
48200;BME280;33990;44.602;10.976;2023-04-10T07:07:45;101906.84;;;18.75;46.08
48200;BME280;33990;44.602;10.976;2023-04-10T07:10:13;101906.84;;;18.75;46.02
48200;BME280;33990;44.602;10.976;2023-04-10T07:12:40;101904.16;;;18.75;46.03
48200;BME280;33990;44.602;10.976;2023-04-10T07:15:08;101912.22;;;18.75;46.29
48200;BME280;33990;44.602;10.976;2023-04-10T07:17:36;101911.28;;;18.76;46.07
48200;BME280;33990;44.602;10.976;2023-04-10T07:20:03;101909.44;;;18.77;45.98
48200;BME280;33990;44.602;10.976;2023-04-10T07:22:31;101902.25;;;18.77;46.12
48200;BME280;33990;44.602;10.976;2023-04-10T07:24:58;101901.41;;;18.77;46.12
48200;BME280;33990;44.602;10.976;2023-04-10T07:27:25;101899.56;;;18.77;46.02
48200;BME280;33990;44.602;10.976;2023-04-10T07:29:54;101897.75;;;18.78;46.06
48200;BME280;33990;44.602;10.976;2023-04-10T07:32:22;101898.59;;;18.78;46.15
48200;BME280;33990;44.602;10.976;2023-04-10T07:34:50;101894.09;;;18.79;46.09
48200;BME280;33990;44.602;10.976;2023-04-10T07:37:17;101900.31;;;18.80;46.15
48200;BME280;33990;44.602;10.976;2023-04-10T07:39:45;101899.47;;;18.79;46.11
48200;BME280;33990;44.602;10.976;2023-04-10T07:42:12;101888.72;;;18.79;45.99
48200;BME280;33990;44.602;10.976;2023-04-10T07:44:39;101893.16;;;18.80;45.92
48200;BME280;33990;44.602;10.976;2023-04-10T07:47:07;101896.69;;;18.81;45.94
48200;BME280;33990;44.602;10.976;2023-04-10T07:49:34;101898.41;;;18.82;46.07
48200;BME280;33990;44.602;10.976;2023-04-10T07:52:01;101894.88;;;18.81;45.87
48200;BME280;33990;44.602;10.976;2023-04-10T07:54:32;101901.94;;;18.82;46.17
48200;BME280;33990;44.602;10.976;2023-04-10T07:57:00;101902.91;;;18.81;45.91
48200;BME280;33990;44.602;10.976;2023-04-10T07:59:28;101895.72;;;18.82;45.99
48200;BME280;33990;44.602;10.976;2023-04-10T08:01:55;101905.50;;;18.83;45.90
48200;BME280;33990;44.602;10.976;2023-04-10T08:04:23;101901.09;;;18.82;46.01
48200;BME280;33990;44.602;10.976;2023-04-10T08:06:50;101905.50;;;18.83;45.98
48200;BME280;33990;44.602;10.976;2023-04-10T08:09:18;101916.22;;;18.83;45.79
48200;BME280;33990;44.602;10.976;2023-04-10T08:11:45;101906.47;;;18.82;45.86
48200;BME280;33990;44.602;10.976;2023-04-10T08:14:12;101915.34;;;18.82;45.79
48200;BME280;33990;44.602;10.976;2023-04-10T08:16:44;101921.59;;;18.83;45.78
48200;BME280;33990;44.602;10.976;2023-04-10T08:19:12;101928.66;;;18.84;45.66
48200;BME280;33990;44.602;10.976;2023-04-10T08:21:39;101925.03;;;18.85;44.26
48200;BME280;33990;44.602;10.976;2023-04-10T08:24:06;101933.09;;;18.85;42.63
48200;BME280;33990;44.602;10.976;2023-04-10T08:26:34;101925.03;;;18.85;40.79
48200;BME280;33990;44.602;10.976;2023-04-10T08:29:01;101928.66;;;18.84;41.21
48200;BME280;33990;44.602;10.976;2023-04-10T08:31:28;101919.88;;;18.82;41.11
48200;BME280;33990;44.602;10.976;2023-04-10T08:33:56;101925.25;;;18.82;42.00
48200;BME280;33990;44.602;10.976;2023-04-10T08:36:25;101922.44;;;18.83;40.50
48200;BME280;33990;44.602;10.976;2023-04-10T08:38:53;101926.88;;;18.84;40.32
48200;BME280;33990;44.602;10.976;2023-04-10T08:41:20;101925.03;;;18.85;39.84
48200;BME280;33990;44.602;10.976;2023-04-10T08:43:48;101925.91;;;18.85;39.69
48200;BME280;33990;44.602;10.976;2023-04-10T08:46:16;101922.34;;;18.85;40.63
48200;BME280;33990;44.602;10.976;2023-04-10T08:48:59;101924.06;;;18.86;38.81
48200;BME280;33990;44.602;10.976;2023-04-10T08:51:45;101916.03;;;18.86;39.39
48200;BME280;33990;44.602;10.976;2023-04-10T08:54:26;101915.91;;;18.87;39.72
48200;BME280;33990;44.602;10.976;2023-04-10T08:56:55;101918.59;;;18.87;39.74
48200;BME280;33990;44.602;10.976;2023-04-10T08:59:24;101933.75;;;18.88;39.61
48200;BME280;33990;44.602;10.976;2023-04-10T09:01:52;101924.94;;;18.86;38.16
48200;BME280;33990;44.602;10.976;2023-04-10T09:04:20;101925.97;;;18.84;37.83
48200;BME280;33990;44.602;10.976;2023-04-10T09:06:47;101919.75;;;18.83;38.53
48200;BME280;33990;44.602;10.976;2023-04-10T09:09:15;101921.59;;;18.83;39.19
48200;BME280;33990;44.602;10.976;2023-04-10T09:14:23;101918.16;;;18.81;38.35
48200;BME280;33990;44.602;10.976;2023-04-10T09:16:52;101928.03;;;18.80;37.72
48200;BME280;33990;44.602;10.976;2023-04-10T09:19:30;101922.66;;;18.80;39.64
48200;BME280;33990;44.602;10.976;2023-04-10T09:21:57;101927.91;;;18.82;38.69
48200;BME280;33990;44.602;10.976;2023-04-10T09:24:26;101919.88;;;18.82;38.75
48200;BME280;33990;44.602;10.976;2023-04-10T09:26:56;101927.91;;;18.82;39.15
48200;BME280;33990;44.602;10.976;2023-04-10T09:29:24;101925.03;;;18.85;38.98
48200;BME280;33990;44.602;10.976;2023-04-10T09:31:53;101927.59;;;18.86;37.00
48200;BME280;33990;44.602;10.976;2023-04-10T09:34:21;101925.78;;;18.87;37.98
48200;BME280;33990;44.602;10.976;2023-04-10T09:36:57;101925.78;;;18.87;37.70
48200;BME280;33990;44.602;10.976;2023-04-10T09:39:36;101927.59;;;18.86;38.17
48200;BME280;33990;44.602;10.976;2023-04-10T09:42:07;101925.03;;;18.85;38.56
48200;BME280;33990;44.602;10.976;2023-04-10T09:44:37;101925.25;;;18.82;39.20
48200;BME280;33990;44.602;10.976;2023-04-10T09:47:17;101933.41;;;18.80;39.06
48200;BME280;33990;44.602;10.976;2023-04-10T09:52:21;101925.44;;;18.78;38.76
48200;BME280;33990;44.602;10.976;2023-04-10T09:54:49;101922.75;;;18.78;37.58
48200;BME280;33990;44.602;10.976;2023-04-10T09:57:18;101922.94;;;18.75;38.04
48200;BME280;33990;44.602;10.976;2023-04-10T09:59:57;101913.09;;;18.76;37.62
48200;BME280;33990;44.602;10.976;2023-04-10T10:02:27;101924.56;;;18.78;39.53
48200;BME280;33990;44.602;10.976;2023-04-10T10:04:56;101918.16;;;18.81;39.91
48200;BME280;33990;44.602;10.976;2023-04-10T10:07:28;101925.97;;;18.84;40.63
48200;BME280;33990;44.602;10.976;2023-04-10T10:09:57;101917.72;;;18.87;41.03
48200;BME280;33990;44.602;10.976;2023-04-10T10:15:12;101912.91;;;18.92;41.22
48200;BME280;33990;44.602;10.976;2023-04-10T10:17:59;101905.63;;;18.94;41.27
48200;BME280;33990;44.602;10.976;2023-04-10T10:20:31;101906.41;;;18.96;41.07
48200;BME280;33990;44.602;10.976;2023-04-10T10:23:02;101896.53;;;18.96;41.22
48200;BME280;33990;44.602;10.976;2023-04-10T10:25:30;101892.00;;;18.97;41.51
48200;BME280;33990;44.602;10.976;2023-04-10T10:27:59;101892.88;;;18.97;41.36
48200;BME280;33990;44.602;10.976;2023-04-10T10:30:33;101888.38;;;18.98;41.61
48200;BME280;33990;44.602;10.976;2023-04-10T10:33:02;101881.16;;;18.98;41.64
48200;BME280;33990;44.602;10.976;2023-04-10T10:35:36;101884.72;;;18.99;41.80
48200;BME280;33990;44.602;10.976;2023-04-10T10:38:03;101878.41;;;19.00;41.55
48200;BME280;33990;44.602;10.976;2023-04-10T10:40:48;101876.56;;;19.00;41.87
48200;BME280;33990;44.602;10.976;2023-04-10T10:46:03;101869.38;;;19.01;42.05
48200;BME280;33990;44.602;10.976;2023-04-10T10:48:33;101873.78;;;19.02;42.07
48200;BME280;33990;44.602;10.976;2023-04-10T10:51:00;101866.69;;;19.01;42.20
48200;BME280;33990;44.602;10.976;2023-04-10T10:53:41;101863.03;;;19.02;42.21
48200;BME280;33990;44.602;10.976;2023-04-10T10:58:46;101858.53;;;19.02;42.28
48200;BME280;33990;44.602;10.976;2023-04-10T11:01:14;101864.88;;;19.01;42.37
48200;BME280;33990;44.602;10.976;2023-04-10T11:03:43;101855.00;;;19.02;42.39
48200;BME280;33990;44.602;10.976;2023-04-10T11:06:16;101850.47;;;19.02;42.53
48200;BME280;33990;44.602;10.976;2023-04-10T11:08:46;101850.38;;;19.04;42.77
48200;BME280;33990;44.602;10.976;2023-04-10T11:11:17;101850.38;;;19.04;42.79
48200;BME280;33990;44.602;10.976;2023-04-10T11:16:18;101845.88;;;19.05;42.90
48200;BME280;33990;44.602;10.976;2023-04-10T11:21:22;101834.16;;;19.06;43.29
48200;BME280;33990;44.602;10.976;2023-04-10T11:29:31;101839.22;;;19.10;43.52
48200;BME280;33990;44.602;10.976;2023-04-10T11:31:57;101822.25;;;19.10;43.68
48200;BME280;33990;44.602;10.976;2023-04-10T11:34:24;101803.34;;;19.11;43.66
48200;BME280;33990;44.602;10.976;2023-04-10T11:36:53;101808.72;;;19.11;43.66
48200;BME280;33990;44.602;10.976;2023-04-10T11:39:21;101815.84;;;19.12;43.96
48200;BME280;33990;44.602;10.976;2023-04-10T11:41:50;101814.75;;;19.15;44.05
48200;BME280;33990;44.602;10.976;2023-04-10T11:46:54;101801.09;;;19.18;44.53
48200;BME280;33990;44.602;10.976;2023-04-10T11:49:32;101801.84;;;19.20;44.48
48200;BME280;33990;44.602;10.976;2023-04-10T11:52:00;101806.34;;;19.19;44.81
48200;BME280;33990;44.602;10.976;2023-04-10T11:54:30;101802.81;;;19.19;45.17
48200;BME280;33990;44.602;10.976;2023-04-10T11:57:04;101792.94;;;19.19;45.51
48200;BME280;33990;44.602;10.976;2023-04-10T11:59:33;101792.94;;;19.19;46.07
48200;BME280;33990;44.602;10.976;2023-04-10T12:02:05;101788.41;;;19.20;46.51
48200;BME280;33990;44.602;10.976;2023-04-10T12:04:34;101787.47;;;19.21;46.53
48200;BME280;33990;44.602;10.976;2023-04-10T12:07:02;101783.94;;;19.20;46.78
48200;BME280;33990;44.602;10.976;2023-04-10T12:09:30;101789.31;;;19.20;46.87
48200;BME280;33990;44.602;10.976;2023-04-10T12:11:59;101788.34;;;19.21;46.81
48200;BME280;33990;44.602;10.976;2023-04-10T12:14:38;101787.47;;;19.21;47.72
48200;BME280;33990;44.602;10.976;2023-04-10T12:17:07;101791.03;;;19.21;47.30
48200;BME280;33990;44.602;10.976;2023-04-10T12:19:37;101783.81;;;19.22;47.66
48200;BME280;33990;44.602;10.976;2023-04-10T12:22:05;101787.47;;;19.21;47.88
48200;BME280;33990;44.602;10.976;2023-04-10T12:27:23;101778.44;;;19.22;47.81
48200;BME280;33990;44.602;10.976;2023-04-10T12:29:55;101777.69;;;19.20;44.96
48200;BME280;33990;44.602;10.976;2023-04-10T12:32:24;101765.16;;;19.20;46.85
48200;BME280;33990;44.602;10.976;2023-04-10T12:34:55;101768.78;;;19.19;46.83
48200;BME280;33990;44.602;10.976;2023-04-10T12:37:24;101765.16;;;19.20;46.81
48200;BME280;33990;44.602;10.976;2023-04-10T12:40:12;101761.56;;;19.20;46.69
48200;BME280;33990;44.602;10.976;2023-04-10T12:42:39;101756.13;;;19.21;47.08
48200;BME280;33990;44.602;10.976;2023-04-10T12:45:08;101750.63;;;19.23;47.26
48200;BME280;33990;44.602;10.976;2023-04-10T12:47:47;101746.25;;;19.22;47.01
48200;BME280;33990;44.602;10.976;2023-04-10T12:50:16;101747.94;;;19.23;47.01
48200;BME280;33990;44.602;10.976;2023-04-10T12:52:45;101739.03;;;19.22;47.05
48200;BME280;33990;44.602;10.976;2023-04-10T12:55:17;101747.09;;;19.22;46.65
48200;BME280;33990;44.602;10.976;2023-04-10T12:57:46;101740.75;;;19.23;46.72
48200;BME280;33990;44.602;10.976;2023-04-10T13:00:18;101742.56;;;19.23;46.47
48200;BME280;33990;44.602;10.976;2023-04-10T13:02:47;101744.28;;;19.24;46.33
48200;BME280;33990;44.602;10.976;2023-04-10T13:05:14;101739.81;;;19.24;46.33
48200;BME280;33990;44.602;10.976;2023-04-10T13:07:42;101741.50;;;19.25;46.18
48200;BME280;33990;44.602;10.976;2023-04-10T13:10:09;101734.44;;;19.24;46.24
48200;BME280;33990;44.602;10.976;2023-04-10T13:12:37;101721.00;;;19.24;45.93
48200;BME280;33990;44.602;10.976;2023-04-10T13:15:06;101729.06;;;19.24;45.97
48200;BME280;33990;44.602;10.976;2023-04-10T13:17:34;101727.22;;;19.25;45.86
48200;BME280;33990;44.602;10.976;2023-04-10T13:20:02;101725.50;;;19.24;45.92
48200;BME280;33990;44.602;10.976;2023-04-10T13:22:30;101730.00;;;19.23;46.02
48200;BME280;33990;44.602;10.976;2023-04-10T13:24:58;101721.09;;;19.23;45.78
48200;BME280;33990;44.602;10.976;2023-04-10T13:27:25;101722.94;;;19.22;45.58
48200;BME280;33990;44.602;10.976;2023-04-10T13:29:52;101719.41;;;19.22;45.74
48200;BME280;33990;44.602;10.976;2023-04-10T13:32:20;101715.84;;;19.21;45.53
48200;BME280;33990;44.602;10.976;2023-04-10T13:34:47;101714.03;;;19.22;45.22
48200;BME280;33990;44.602;10.976;2023-04-10T13:37:14;101707.81;;;19.21;45.19
48200;BME280;33990;44.602;10.976;2023-04-10T13:39:42;101710.50;;;19.21;45.37
48200;BME280;33990;44.602;10.976;2023-04-10T13:42:09;101716.84;;;19.20;44.98
48200;BME280;33990;44.602;10.976;2023-04-10T13:44:36;101708.78;;;19.20;44.83
48200;BME280;33990;44.602;10.976;2023-04-10T13:47:04;101708.78;;;19.20;44.76
48200;BME280;33990;44.602;10.976;2023-04-10T13:49:32;101706.09;;;19.20;44.84
48200;BME280;33990;44.602;10.976;2023-04-10T13:51:59;101705.31;;;19.18;44.71